• Join FlightAware (Why Join?)
  • Login
  • US Flag 
02:26AM EST


 

Airport Tracker/Info


-or-


 

Live Flight TrackerFlight Track Log ✈ GJS6241 ✈ 11-Apr-2013 ✈ KLGA - KCHO

Flight Track Log - Related Links

Times and Time Zones

All times are in EDT time to prevent confusion due to time zone crossing. See the GJS6241 flight status page for this flight to view local times or setup timezone preferences in your user account.

Time Position Orientation Groundspeed Altitude Reporting Facility
EDT Latitude Longitude Course Direction KTS MPH feet Rate Location/Type
08:42PM 40.7667 -73.8500 143° Southeast 143 165 1,200  Level New York TRACON
08:43PM 40.7333 -73.8167 143° Southeast 200 230 3,400 1,850 Climbing New York TRACON
08:44PM 40.7667 -73.7667 49° Northeast 246 283 4,900 800 Climbing New York TRACON
08:45PM 40.8000 -73.8333 303° West 265 305 5,000 1,700 Climbing New York TRACON
08:46PM 40.8167 -73.9167 285° West 253 291 8,300 3,200 Climbing New York TRACON
08:47PM 40.8167 -74.0167 270° West 259 298 11,400 2,201 Climbing New York TRACON
08:49PM 40.7783 -74.2733 259° West 321 369 15,600 1,688 Climbing New York Center
08:50PM 40.7606 -74.3819 258° West 335 386 17,000 950 Climbing New York Center
08:51PM 40.7086 -74.5078 241° Southwest 351 404 17,500 1,400 Climbing New York Center
08:52PM 40.6469 -74.6111 232° Southwest 356 410 19,800 2,000 Climbing New York Center
08:53PM 40.5811 -74.7139 230° Southwest 362 417 21,500 1,563 Climbing New York Center
08:54PM 40.5150 -74.8194 231° Southwest 372 428 22,900 1,210 Climbing New York Center
08:55PM 40.4467 -74.9272 230° Southwest 383 441 23,900 992 Climbing New York Center
08:56PM 40.3719 -75.0400 229° Southwest 396 456 24,900 1,033 Climbing New York Center
08:57PM 40.2969 -75.1494 228° Southwest 406 467 26,000 1,059 Climbing New York Center
08:58PM 40.2200 -75.2561 227° Southwest 406 467 27,000 958 Climbing New York Center
08:59PM 40.1450 -75.3625 227° Southwest 406 467 27,900 443 Climbing New York Center
09:00PM 40.0633 -75.4767 227° Southwest 406 467 27,900  Level New York Center
09:01PM 39.9906 -75.5747 226° Southwest 417 480 27,900 51 Level New York Center
09:02PM 39.9133 -75.6831 227° Southwest 417 480 28,000 51 Climbing New York Center
09:03PM 39.8458 -75.7972 232° Southwest 417 480 28,000 -149 Level New York Center
09:04PM 39.7744 -75.9056 229° Southwest 412 474 27,700 -793 Descending New York Center
09:05PM 39.7047 -76.0219 232° Southwest 412 474 26,400 -1,337 Descending New York Center
09:07PM 39.5767 -76.2189 230° Southwest 420 483 24,000 -1,382 Descending Washington Center
09:08PM 39.5072 -76.3231 229° Southwest 412 474 22,600 -1,000 Descending Washington Center
09:09PM 39.4378 -76.4300 230° Southwest 398 458 22,000 -300 Descending Washington Center
09:10PM 39.3597 -76.5525 231° Southwest 398 458 22,000  Level Washington Center
09:11PM 39.2858 -76.6669 230° Southwest 409 471 22,000  Level Washington Center
09:11PM 39.2667 -76.7000 233° Southwest 407 468 22,000  Level Potomac TRACON
09:12PM 39.2000 -76.8167 234° Southwest 402 463 22,000  Level Potomac TRACON
09:13PM 39.1167 -76.9167 223° Southwest 391 450 22,000  Level Potomac TRACON
09:14PM 39.0500 -77.0167 229° Southwest 380 437 22,000 -500 Level Potomac TRACON
09:15PM 38.9833 -77.1167 229° Southwest 396 456 21,000 -736 Descending Potomac TRACON
09:17PM 38.8392 -77.2653 219° Southwest 409 471 20,000 -552 Descending Washington Center
09:18PM 38.7608 -77.3489 220° Southwest 388 447 19,500 -1,100 Descending Washington Center
09:19PM 38.6847 -77.4319 220° Southwest 380 437 17,800 -1,600 Descending Washington Center
09:20PM 38.6122 -77.5258 225° Southwest 374 430 16,300 -1,500 Descending Washington Center
09:21PM 38.5606 -77.6333 238° Southwest 369 425 14,800 -1,500 Descending Washington Center
09:22PM 38.5064 -77.7381 237° Southwest 364 419 13,300 -1,550 Descending Washington Center
09:23PM 38.4547 -77.8347 236° Southwest 351 404 11,700 -1,150 Descending Washington Center
09:24PM 38.4092 -77.9286 238° Southwest 332 382 11,000 -750 Descending Washington Center
09:25PM 38.3681 -78.0069 236° Southwest 301 346 10,200 -1,100 Descending Washington Center
09:26PM 38.3289 -78.0850 237° Southwest 278 320 8,800 -1,700 Descending Washington Center
09:27PM 38.2917 -78.1578 237° Southwest 265 305 6,800 -1,400 Descending Washington Center
09:28PM 38.2842 -78.2264 262° West 248 285 6,000 -1,100 Descending Washington Center
09:29PM 38.2803 -78.3003 266° West 224 258 4,600 -1,500 Descending Washington Center
09:30PM 38.2622 -78.3683 251° West 195 224 3,000 -1,050 Descending Washington Center
09:31PM 38.2342 -78.4017 223° Southwest 165 190 2,500 -550 Descending Washington Center
09:32PM 38.2047 -78.4192 205° Southwest 133 153 1,900 -650 Descending Washington Center
09:33PM 38.1708 -78.4364 202° Southwest 122 140 1,200 -600 Descending Washington Center
09:34PM 38.1392 -78.4536 203° Southwest 122 140 700 -500 Descending Washington Center
09:36PM 38.1333 -78.4500 238° Southwest  Level FlightAware Approximate
09:43PM 38.1386 -78.4529 238° Southwest  Level Estimated
09:44PM 38.1333 -78.4500 238° Southwest  Level FlightAware Approximate
09:45PM 38.1386 -78.4529 238° Southwest  Level Estimated
09:46PM 38.1333 -78.4500 238° Southwest  Level FlightAware Approximate
09:47PM 38.1386 -78.4529 238° Southwest  Level Estimated
09:48PM 38.1333 -78.4500 238° Southwest  Level FlightAware Approximate